createdAt,value
2018-11-25T00:01:51.049Z,32.53
2018-11-25T00:04:19.494Z,33.73
2018-11-25T00:06:48.790Z,32.33
2018-11-25T00:09:17.307Z,36.00
2018-11-25T00:11:46.331Z,35.40
2018-11-25T00:14:14.825Z,35.23
2018-11-25T00:16:43.385Z,35.87
2018-11-25T00:19:11.850Z,35.43
2018-11-25T00:21:40.271Z,37.53
2018-11-25T00:24:08.744Z,43.63
2018-11-25T00:26:37.239Z,38.40
2018-11-25T00:29:05.760Z,39.83
2018-11-25T00:31:34.234Z,41.63
2018-11-25T00:34:02.717Z,45.20
2018-11-25T00:36:31.127Z,43.10
2018-11-25T00:38:59.585Z,44.87
2018-11-25T00:41:28.020Z,47.93
2018-11-25T00:43:56.516Z,50.57
2018-11-25T00:46:25.051Z,43.90
2018-11-25T00:48:53.497Z,51.27
2018-11-25T00:51:21.903Z,49.33
2018-11-25T00:53:50.330Z,44.47
2018-11-25T00:56:18.782Z,47.53
2018-11-25T00:58:47.197Z,48.93
2018-11-25T01:01:15.674Z,49.60
2018-11-25T01:03:44.167Z,51.50
2018-11-25T01:06:12.654Z,55.77
2018-11-25T01:08:41.065Z,44.20
2018-11-25T01:11:09.506Z,49.27
2018-11-25T01:13:37.942Z,45.83
2018-11-25T01:16:06.553Z,45.17
2018-11-25T01:18:34.987Z,45.20
2018-11-25T01:21:03.451Z,42.63
2018-11-25T01:23:32.197Z,51.67
2018-11-25T01:26:00.639Z,46.00
2018-11-25T01:28:29.081Z,52.40
2018-11-25T01:30:57.530Z,53.23
2018-11-25T01:33:25.921Z,63.83
2018-11-25T01:35:54.459Z,62.90
2018-11-25T01:38:29.636Z,74.80
2018-11-25T01:40:58.116Z,63.23
2018-11-25T01:43:26.588Z,62.07
2018-11-25T01:45:55.059Z,57.43
2018-11-25T01:48:23.482Z,58.27
2018-11-25T01:50:51.917Z,60.87
2018-11-25T01:53:20.359Z,62.90
2018-11-25T01:55:48.780Z,66.57
2018-11-25T01:58:17.419Z,71.60
2018-11-25T02:00:45.854Z,72.00
2018-11-25T02:03:14.302Z,76.47
2018-11-25T02:05:42.714Z,68.90
2018-11-25T02:08:11.170Z,69.17
2018-11-25T02:10:39.582Z,72.60
2018-11-25T02:13:08.155Z,62.43
2018-11-25T02:15:36.715Z,66.23
2018-11-25T02:18:05.231Z,70.10
2018-11-25T02:20:33.649Z,76.53
2018-11-25T02:23:02.077Z,76.53
2018-11-25T02:25:30.661Z,80.77
2018-11-25T02:27:59.067Z,66.33
2018-11-25T02:30:27.559Z,66.30
2018-11-25T02:32:55.989Z,66.10
2018-11-25T02:35:24.424Z,66.67
2018-11-25T02:37:52.864Z,69.30
2018-11-25T02:40:21.486Z,64.97
2018-11-25T02:42:49.917Z,62.33
2018-11-25T02:45:19.196Z,58.23
2018-11-25T02:47:47.634Z,66.73
2018-11-25T02:50:26.110Z,74.40
2018-11-25T02:52:56.037Z,57.30
2018-11-25T02:55:25.429Z,64.03
2018-11-25T02:57:53.923Z,60.03
2018-11-25T03:00:22.518Z,59.17
2018-11-25T03:02:51.016Z,61.53
2018-11-25T03:05:19.536Z,73.40
2018-11-25T03:07:48.047Z,69.40
2018-11-25T03:10:16.504Z,66.57
2018-11-25T03:12:45.045Z,68.37
2018-11-25T03:15:15.914Z,64.93
2018-11-25T03:17:44.445Z,69.17
2018-11-25T03:20:13.749Z,62.30
2018-11-25T03:22:42.218Z,69.40
2018-11-25T03:25:14.941Z,65.23
2018-11-25T03:27:43.379Z,61.73
2018-11-25T03:30:14.138Z,66.53
2018-11-25T03:32:42.837Z,65.77
2018-11-25T03:35:12.345Z,64.50
2018-11-25T03:37:40.836Z,59.13
2018-11-25T03:40:10.518Z,67.53
2018-11-25T03:42:39.190Z,58.23
2018-11-25T03:45:10.545Z,55.80
2018-11-25T03:47:38.954Z,63.60
2018-11-25T03:50:08.600Z,57.80
2018-11-25T03:52:37.060Z,58.47
2018-11-25T03:55:08.685Z,66.10
2018-11-25T03:57:37.307Z,67.63
2018-11-25T04:00:09.750Z,79.80
2018-11-25T04:02:38.206Z,61.90
2018-11-25T04:05:08.314Z,74.33
2018-11-25T04:07:37.013Z,65.33
2018-11-25T04:10:08.270Z,75.90
2018-11-25T04:12:36.757Z,74.37
2018-11-25T04:15:07.641Z,73.13
2018-11-25T04:17:36.113Z,67.70
2018-11-25T04:20:04.637Z,74.93
2018-11-25T04:22:33.177Z,79.87
2018-11-25T04:25:01.667Z,96.13
2018-11-25T04:27:30.111Z,82.30
2018-11-25T04:29:58.574Z,86.10
2018-11-25T04:32:26.997Z,92.50
2018-11-25T04:34:55.438Z,80.50
2018-11-25T04:37:23.991Z,91.13
2018-11-25T04:39:52.434Z,88.63
2018-11-25T04:42:20.896Z,80.77
2018-11-25T04:44:49.827Z,79.60
2018-11-25T04:47:18.279Z,85.90
2018-11-25T04:49:46.725Z,81.80
2018-11-25T04:52:15.165Z,85.50
2018-11-25T04:54:43.606Z,83.93
2018-11-25T04:57:12.029Z,80.67
2018-11-25T04:59:40.486Z,80.33
2018-11-25T05:02:08.922Z,76.43
2018-11-25T05:04:37.348Z,78.10
2018-11-25T05:07:06.448Z,70.47
2018-11-25T05:09:34.886Z,79.10
2018-11-25T05:12:03.370Z,72.43
2018-11-25T05:14:31.797Z,75.93
2018-11-25T05:17:00.283Z,73.60
2018-11-25T05:19:28.713Z,70.07
2018-11-25T05:21:57.358Z,72.60
2018-11-25T05:24:25.810Z,74.53
2018-11-25T05:26:54.253Z,72.07
2018-11-25T05:29:22.709Z,70.83
2018-11-25T05:31:51.150Z,67.40
2018-11-25T05:34:19.579Z,63.20
2018-11-25T05:36:48.172Z,62.00
2018-11-25T05:39:16.606Z,58.10
2018-11-25T05:41:45.740Z,64.23
2018-11-25T05:44:14.168Z,53.20
2018-11-25T05:46:42.595Z,48.33
2018-11-25T05:49:11.090Z,48.83
2018-11-25T05:51:39.543Z,55.13
2018-11-25T05:54:08.014Z,51.50
2018-11-25T05:56:36.466Z,45.07
2018-11-25T05:59:05.379Z,52.47
2018-11-25T06:01:33.887Z,49.33
2018-11-25T06:04:02.352Z,47.83
2018-11-25T06:06:30.788Z,49.60
2018-11-25T06:08:59.246Z,45.43
2018-11-25T06:11:27.687Z,47.73
2018-11-25T06:13:56.139Z,48.63
2018-11-25T06:16:24.566Z,43.00
2018-11-25T06:18:53.257Z,39.33
2018-11-25T06:21:21.700Z,49.60
2018-11-25T06:23:50.284Z,41.03
2018-11-25T06:26:18.710Z,40.47
2018-11-25T06:28:47.182Z,42.93
2018-11-25T06:31:15.697Z,49.50
2018-11-25T06:33:44.176Z,42.97
2018-11-25T06:36:12.765Z,47.60
2018-11-25T06:38:41.194Z,48.83
2018-11-25T06:41:09.642Z,44.87
2018-11-25T06:43:38.104Z,47.20
2018-11-25T06:46:08.926Z,45.73
2018-11-25T06:48:37.348Z,49.90
2018-11-25T06:51:06.301Z,40.90
2018-11-25T06:53:34.727Z,53.43
2018-11-25T06:56:03.370Z,42.00
2018-11-25T06:58:31.807Z,50.00
2018-11-25T07:01:00.286Z,43.10
2018-11-25T07:03:28.866Z,48.07
2018-11-25T07:05:57.310Z,46.17
2018-11-25T07:08:25.759Z,47.50
2018-11-25T07:10:54.548Z,47.07
2018-11-25T07:13:23.145Z,44.23
2018-11-25T07:15:51.593Z,48.63
2018-11-25T07:18:20.593Z,46.87
2018-11-25T07:20:49.055Z,47.93
2018-11-25T07:23:17.611Z,51.10
2018-11-25T07:25:46.820Z,50.47
2018-11-25T07:28:18.368Z,50.53
2018-11-25T07:30:43.768Z,54.07
2018-11-25T07:33:12.383Z,55.63
2018-11-25T07:35:40.841Z,49.23
2018-11-25T07:38:09.411Z,51.70
2018-11-25T07:40:37.895Z,51.03
2018-11-25T07:43:06.976Z,50.40
2018-11-25T07:45:35.466Z,52.27
2018-11-25T07:48:03.982Z,55.07
2018-11-25T07:50:32.427Z,58.23
2018-11-25T07:53:00.976Z,51.03
2018-11-25T07:55:29.438Z,46.40
2018-11-25T07:57:57.925Z,53.67
2018-11-25T08:00:26.770Z,51.90
2018-11-25T08:02:55.266Z,55.30
2018-11-25T08:05:26.064Z,51.07
2018-11-25T08:07:55.313Z,48.97
2018-11-25T08:10:23.776Z,51.20
2018-11-25T08:12:52.458Z,50.80
2018-11-25T08:15:21.187Z,50.77
2018-11-25T08:17:50.521Z,48.20
2018-11-25T08:20:19.953Z,47.37
2018-11-25T08:22:48.825Z,51.30
2018-11-25T08:25:18.365Z,46.90
2018-11-25T08:27:47.541Z,48.50
2018-11-25T08:30:19.241Z,50.97
2018-11-25T08:32:47.722Z,46.07
2018-11-25T08:35:16.958Z,46.57
2018-11-25T08:37:45.858Z,46.50
2018-11-25T08:40:16.421Z,49.27
2018-11-25T08:42:44.957Z,44.87
2018-11-25T08:45:14.403Z,43.83
2018-11-25T08:47:42.898Z,48.03
2018-11-25T08:50:17.734Z,52.83
2018-11-25T08:52:47.271Z,50.63
2018-11-25T08:55:16.947Z,49.17
2018-11-25T08:57:45.428Z,46.13
2018-11-25T09:00:15.914Z,60.47
2018-11-25T09:02:44.368Z,50.97
2018-11-25T09:05:13.947Z,53.60
2018-11-25T09:07:42.535Z,54.13
2018-11-25T09:10:12.427Z,49.00
2018-11-25T09:12:40.988Z,48.57
2018-11-25T09:15:14.562Z,56.97
2018-11-25T09:17:43.938Z,47.33
2018-11-25T09:20:13.661Z,47.27
2018-11-25T09:22:42.932Z,52.30
2018-11-25T09:25:13.766Z,46.90
2018-11-25T09:27:42.247Z,51.57
2018-11-25T09:30:18.167Z,55.73
2018-11-25T09:32:46.765Z,51.63
2018-11-25T09:35:15.312Z,55.60
2018-11-25T09:37:43.829Z,50.53
2018-11-25T09:40:14.519Z,50.27
2018-11-25T09:42:44.175Z,45.77
2018-11-25T09:45:15.569Z,48.83
2018-11-25T09:47:44.460Z,50.00
2018-11-25T09:50:15.079Z,48.83
2018-11-25T09:52:43.749Z,47.90
2018-11-25T09:55:15.229Z,46.60
2018-11-25T09:57:45.104Z,48.90
2018-11-25T10:00:25.505Z,42.53
2018-11-25T10:02:54.237Z,39.47
2018-11-25T10:05:22.738Z,42.27
2018-11-25T10:07:51.943Z,36.37
2018-11-25T10:10:21.929Z,41.83
2018-11-25T10:12:51.122Z,41.60
2018-11-25T10:15:22.642Z,46.63
2018-11-25T10:17:59.050Z,42.77
2018-11-25T10:20:26.316Z,44.23
2018-11-25T10:22:54.809Z,43.90
2018-11-25T10:25:23.550Z,44.20
2018-11-25T10:27:52.210Z,43.17
2018-11-25T10:30:21.668Z,43.00
2018-11-25T10:32:53.252Z,44.53
2018-11-25T10:35:23.943Z,44.80
2018-11-25T10:37:52.422Z,42.80
2018-11-25T10:40:22.219Z,42.83
2018-11-25T10:42:50.723Z,42.50
2018-11-25T10:45:21.330Z,43.03
2018-11-25T10:47:51.718Z,45.13
2018-11-25T10:50:20.829Z,44.20
2018-11-25T10:52:50.535Z,41.87
2018-11-25T10:55:20.939Z,37.07
2018-11-25T10:57:51.785Z,43.63
2018-11-25T11:00:31.986Z,48.50
2018-11-25T11:03:05.751Z,45.47
2018-11-25T11:05:39.649Z,40.67
2018-11-25T11:08:09.037Z,47.97
2018-11-25T11:10:37.649Z,47.87
2018-11-25T11:13:07.219Z,44.20
2018-11-25T11:15:35.817Z,42.27
2018-11-25T11:18:04.754Z,42.53
2018-11-25T11:20:33.804Z,44.27
2018-11-25T11:23:02.285Z,44.47
2018-11-25T11:25:30.752Z,42.77
2018-11-25T11:27:59.284Z,43.23
2018-11-25T11:30:27.713Z,45.03
2018-11-25T11:32:56.260Z,41.87
2018-11-25T11:35:24.727Z,48.27
2018-11-25T11:37:53.284Z,47.10
2018-11-25T11:40:21.892Z,44.10
2018-11-25T11:42:50.409Z,41.80
2018-11-25T11:45:19.193Z,43.20
2018-11-25T11:47:47.710Z,49.50
2018-11-25T11:50:17.668Z,50.53
2018-11-25T11:52:46.200Z,52.00
2018-11-25T11:55:15.799Z,57.47
2018-11-25T11:57:45.198Z,53.47
2018-11-25T12:00:18.445Z,54.13
2018-11-25T12:02:46.916Z,49.90
2018-11-25T12:05:15.389Z,50.70
2018-11-25T12:07:43.886Z,46.73
2018-11-25T12:10:13.697Z,54.10
2018-11-25T12:12:42.287Z,54.77
2018-11-25T12:15:16.335Z,49.93
2018-11-25T12:17:44.758Z,56.40
2018-11-25T12:20:13.295Z,49.40
2018-11-25T12:22:42.527Z,45.77
2018-11-25T12:25:16.475Z,48.80
2018-11-25T12:27:45.023Z,46.83
2018-11-25T12:30:14.347Z,47.00
2018-11-25T12:32:43.715Z,48.33
2018-11-25T12:35:13.235Z,51.17
2018-11-25T12:37:41.691Z,48.20
2018-11-25T12:40:14.108Z,44.70
2018-11-25T12:42:43.650Z,49.20
2018-11-25T12:45:15.272Z,49.00
2018-11-25T12:47:43.791Z,43.20
2018-11-25T12:50:20.445Z,42.30
2018-11-25T12:52:48.940Z,46.60
2018-11-25T12:55:18.722Z,44.40
2018-11-25T12:57:47.426Z,46.90
2018-11-25T13:00:49.441Z,41.73
2018-11-25T13:03:17.903Z,38.53
2018-11-25T13:05:46.695Z,45.13
2018-11-25T13:08:15.066Z,46.70
2018-11-25T13:10:43.629Z,40.40
2018-11-25T13:13:12.418Z,45.87
2018-11-25T13:15:40.955Z,45.27
2018-11-25T13:18:10.818Z,43.73
2018-11-25T13:20:39.263Z,44.43
2018-11-25T13:23:07.955Z,43.40
2018-11-25T13:25:36.431Z,45.87
2018-11-25T13:28:04.885Z,39.67
2018-11-25T13:30:33.638Z,38.67
2018-11-25T13:33:03.103Z,39.73
2018-11-25T13:35:33.221Z,39.30
2018-11-25T13:38:01.745Z,42.67
2018-11-25T13:40:30.225Z,43.23
2018-11-25T13:42:58.827Z,42.67
2018-11-25T13:45:27.321Z,45.23
2018-11-25T13:47:55.835Z,39.23
2018-11-25T13:50:25.082Z,36.17
2018-11-25T13:52:54.250Z,38.73
2018-11-25T13:55:25.315Z,43.70
2018-11-25T13:57:54.801Z,42.63
2018-11-25T14:00:28.727Z,38.60
2018-11-25T14:02:57.234Z,34.47
2018-11-25T14:05:25.645Z,35.63
2018-11-25T14:07:54.158Z,32.33
2018-11-25T14:10:26.682Z,34.00
2018-11-25T14:12:55.191Z,32.50
2018-11-25T14:15:23.658Z,33.87
2018-11-25T14:17:52.279Z,26.70
2018-11-25T14:20:20.748Z,31.10
2018-11-25T14:22:49.213Z,27.13
2018-11-25T14:25:19.146Z,31.00
2018-11-25T14:27:49.554Z,25.53
2018-11-25T14:30:19.942Z,28.13
2018-11-25T14:32:48.420Z,27.93
2018-11-25T14:35:17.655Z,26.90
2018-11-25T14:37:46.851Z,28.57
2018-11-25T14:40:31.795Z,24.30
2018-11-25T14:43:00.935Z,25.97
2018-11-25T14:45:29.524Z,28.13
2018-11-25T14:47:58.648Z,22.00
2018-11-25T14:50:27.418Z,22.00
2018-11-25T14:52:55.951Z,24.80
2018-11-25T14:55:24.561Z,22.47
2018-11-25T14:57:53.337Z,25.93
2018-11-25T15:00:22.644Z,22.50
2018-11-25T15:02:56.609Z,22.70
2018-11-25T15:05:28.214Z,20.53
2018-11-25T15:07:56.785Z,21.23
2018-11-25T15:10:25.269Z,22.07
2018-11-25T15:12:54.190Z,25.40
2018-11-25T15:15:23.264Z,18.13
2018-11-25T15:17:52.041Z,20.40
2018-11-25T15:20:21.195Z,18.07
2018-11-25T15:22:53.192Z,17.03
2018-11-25T15:25:27.118Z,18.73
2018-11-25T15:27:56.324Z,19.50
2018-11-25T15:30:24.991Z,22.37
2018-11-25T15:32:53.786Z,18.00
2018-11-25T15:35:23.179Z,17.73
2018-11-25T15:37:52.679Z,17.03
2018-11-25T15:40:24.654Z,18.93
2018-11-25T15:42:53.183Z,20.17
2018-11-25T15:45:21.826Z,23.20
2018-11-25T15:47:52.346Z,21.73
2018-11-25T15:50:25.058Z,21.37
2018-11-25T15:52:53.763Z,17.47
2018-11-25T15:55:22.730Z,24.67
2018-11-25T15:57:51.753Z,18.53
2018-11-25T16:00:21.360Z,19.10
2018-11-25T16:02:50.092Z,20.90
2018-11-25T16:05:22.634Z,19.67
2018-11-25T16:07:51.143Z,25.43
2018-11-25T16:10:19.943Z,24.37
2018-11-25T16:12:49.371Z,22.77
2018-11-25T16:15:19.522Z,22.67
2018-11-25T16:17:47.987Z,23.93
2018-11-25T16:20:18.738Z,21.43
2018-11-25T16:22:48.705Z,24.47
2018-11-25T16:25:26.849Z,27.53
2018-11-25T16:27:58.602Z,20.30
2018-11-25T16:30:28.108Z,24.10
2018-11-25T16:32:56.612Z,21.97
2018-11-25T16:35:25.241Z,21.97
2018-11-25T16:37:53.743Z,27.13
2018-11-25T16:40:22.573Z,23.57
2018-11-25T16:42:51.692Z,23.80
2018-11-25T16:45:20.297Z,22.60
2018-11-25T16:47:48.841Z,24.30
2018-11-25T16:50:25.005Z,25.30
2018-11-25T16:52:46.831Z,21.03
2018-11-25T16:55:15.773Z,22.07
2018-11-25T16:57:44.831Z,23.80
2018-11-25T17:00:15.964Z,22.60
2018-11-25T17:02:44.617Z,24.30
2018-11-25T17:05:19.525Z,22.80
2018-11-25T17:07:51.869Z,20.93
2018-11-25T17:10:22.314Z,19.00
2018-11-25T17:12:51.033Z,23.10
2018-11-25T17:15:21.131Z,25.53
2018-11-25T17:17:49.745Z,21.20
2018-11-25T17:20:18.411Z,21.80
2018-11-25T17:22:47.122Z,19.93
2018-11-25T17:25:15.807Z,19.47
2018-11-25T17:27:44.495Z,21.53
2018-11-25T17:30:14.241Z,21.87
2018-11-25T17:32:43.232Z,24.27
2018-11-25T17:35:16.277Z,24.13
2018-11-25T17:37:44.840Z,24.17
2018-11-25T17:40:13.512Z,21.50
2018-11-25T17:42:42.105Z,24.93
2018-11-25T17:45:11.931Z,21.30
2018-11-25T17:47:41.325Z,24.17
2018-11-25T17:50:13.838Z,21.30
2018-11-25T17:52:42.370Z,29.17
2018-11-25T17:55:12.825Z,29.70
2018-11-25T17:57:41.389Z,25.30
2018-11-25T18:00:13.908Z,27.90
2018-11-25T18:02:42.540Z,30.90
2018-11-25T18:05:11.459Z,27.37
2018-11-25T18:07:40.016Z,27.00
2018-11-25T18:10:11.421Z,27.17
2018-11-25T18:12:41.381Z,30.13
2018-11-25T18:15:14.324Z,29.20
2018-11-25T18:17:45.661Z,27.43
2018-11-25T18:20:14.890Z,28.03
2018-11-25T18:22:47.509Z,27.33
2018-11-25T18:25:16.732Z,28.63
2018-11-25T18:27:45.295Z,24.73
2018-11-25T18:30:16.144Z,27.10
2018-11-25T18:32:46.261Z,27.93
2018-11-25T18:35:15.614Z,25.53
2018-11-25T18:37:44.313Z,30.17
2018-11-25T18:40:13.801Z,26.13
2018-11-25T18:42:43.583Z,27.90
2018-11-25T18:45:14.714Z,26.93
2018-11-25T18:47:45.061Z,26.03
2018-11-25T18:50:15.036Z,24.20
2018-11-25T18:52:45.455Z,24.47
2018-11-25T18:55:12.786Z,24.83
2018-11-25T18:57:41.344Z,24.10
2018-11-25T19:00:11.412Z,25.60
2018-11-25T19:02:44.513Z,25.90
2018-11-25T19:05:13.147Z,24.83
2018-11-25T19:07:41.838Z,23.60
2018-11-25T19:10:17.365Z,21.67
2018-11-25T19:12:46.123Z,25.23
2018-11-25T19:15:17.363Z,24.73
2018-11-25T19:17:45.960Z,22.07
2018-11-25T19:20:18.784Z,23.33
2018-11-25T19:22:47.409Z,20.33
2018-11-25T19:25:17.361Z,23.40
2018-11-25T19:27:46.781Z,18.10
2018-11-25T19:30:16.051Z,19.67
2018-11-25T19:32:45.965Z,19.80
2018-11-25T19:35:17.021Z,21.47
2018-11-25T19:37:46.388Z,18.97
2018-11-25T19:40:18.305Z,21.87
2018-11-25T19:42:47.062Z,20.10
2018-11-25T19:45:18.997Z,16.30
2018-11-25T19:47:47.594Z,17.33
2018-11-25T19:50:47.349Z,18.93
2018-11-25T19:53:15.885Z,15.47
2018-11-25T19:55:44.478Z,18.00
2018-11-25T19:58:13.972Z,20.33
2018-11-25T20:00:42.510Z,23.13
2018-11-25T20:03:11.707Z,17.77
2018-11-25T20:05:40.279Z,17.97
2018-11-25T20:08:09.031Z,52.27
2018-11-25T20:10:38.487Z,30.67
2018-11-25T20:13:08.878Z,18.17
2018-11-25T20:15:37.966Z,18.83
2018-11-25T20:18:10.062Z,19.30
2018-11-25T20:20:38.607Z,17.73
2018-11-25T20:23:07.293Z,23.13
2018-11-25T20:25:36.196Z,19.93
2018-11-25T20:28:04.826Z,20.07
2018-11-25T20:30:33.983Z,21.27
2018-11-25T20:33:15.297Z,20.43
2018-11-25T20:35:44.556Z,23.00
2018-11-25T20:38:17.906Z,15.73
2018-11-25T20:40:47.047Z,19.80
2018-11-25T20:43:15.565Z,20.03
2018-11-25T20:45:49.348Z,21.67
2018-11-25T20:48:17.937Z,19.97
2018-11-25T20:50:46.502Z,19.10
2018-11-25T20:53:20.769Z,20.23
2018-11-25T20:55:48.798Z,19.43
2018-11-25T20:58:17.408Z,19.87
2018-11-25T21:00:45.931Z,19.37
2018-11-25T21:03:14.443Z,19.30
2018-11-25T21:05:43.074Z,18.27
2018-11-25T21:08:11.643Z,18.40
2018-11-25T21:10:40.168Z,20.73
2018-11-25T21:13:08.927Z,20.10
2018-11-25T21:15:37.571Z,19.70
2018-11-25T21:18:06.882Z,18.77
2018-11-25T21:20:35.372Z,22.40
2018-11-25T21:23:03.948Z,19.53
2018-11-25T21:25:32.442Z,23.27
2018-11-25T21:28:00.971Z,23.83
2018-11-25T21:30:29.470Z,23.10
2018-11-25T21:32:58.602Z,24.87
2018-11-25T21:35:27.224Z,23.97
2018-11-25T21:37:55.720Z,22.33
2018-11-25T21:40:25.203Z,26.93
2018-11-25T21:42:53.676Z,23.50
2018-11-25T21:45:23.402Z,24.30
2018-11-25T21:47:52.115Z,24.80
2018-11-25T21:50:25.042Z,23.67
2018-11-25T21:52:53.520Z,24.30
2018-11-25T21:55:22.071Z,24.90
2018-11-25T21:57:50.642Z,24.93
2018-11-25T22:00:21.081Z,25.87
2018-11-25T22:02:49.657Z,26.57
2018-11-25T22:05:18.448Z,25.50
2018-11-25T22:07:53.505Z,28.40
2018-11-25T22:10:22.933Z,22.13
2018-11-25T22:12:51.430Z,25.67
2018-11-25T22:15:21.695Z,26.50
2018-11-25T22:17:50.489Z,24.50
2018-11-25T22:20:19.345Z,27.10
2018-11-25T22:22:47.775Z,28.20
2018-11-25T22:25:18.714Z,25.93
2018-11-25T22:27:47.326Z,27.77
2018-11-25T22:30:24.238Z,24.20
2018-11-25T22:32:52.727Z,23.33
2018-11-25T22:35:22.441Z,26.37
2018-11-25T22:37:50.909Z,29.67
2018-11-25T22:40:20.037Z,25.53
2018-11-25T22:42:49.739Z,25.83
2018-11-25T22:45:20.432Z,24.63
2018-11-25T22:47:48.912Z,29.13
2018-11-25T22:50:19.292Z,25.13
2018-11-25T22:52:47.941Z,27.77
2018-11-25T22:55:20.857Z,26.90
2018-11-25T22:57:49.496Z,29.63
2018-11-25T23:00:27.638Z,29.00
2018-11-25T23:02:56.077Z,33.17
2018-11-25T23:05:35.593Z,29.00
2018-11-25T23:08:04.134Z,27.27
2018-11-25T23:10:32.810Z,29.63
2018-11-25T23:13:01.290Z,30.73
2018-11-25T23:15:29.774Z,27.77
2018-11-25T23:17:58.209Z,29.73
2018-11-25T23:20:26.682Z,31.53
2018-11-25T23:22:55.098Z,35.57
2018-11-25T23:25:23.604Z,28.17
2018-11-25T23:27:52.054Z,34.40
2018-11-25T23:30:20.557Z,35.13
2018-11-25T23:32:49.721Z,35.47
2018-11-25T23:35:20.598Z,34.20
2018-11-25T23:37:49.097Z,33.40
2018-11-25T23:40:17.533Z,36.93
2018-11-25T23:42:46.458Z,35.37
2018-11-25T23:45:15.804Z,39.40
2018-11-25T23:47:44.345Z,32.30
2018-11-25T23:50:14.227Z,39.17
2018-11-25T23:52:44.394Z,36.27
2018-11-25T23:55:14.547Z,33.10
2018-11-25T23:57:43.025Z,35.17
